Impacts TAF Board
For situational awareness. Not to be used for flight planning purposes.
IDs:

KPDX - Portland Intl Arpt, OR, US

Issued at 0543 UTC 18 Jan 2019
Updated at 0948 UTC 18 Jan 2019
Potential Impact None Slight Moderate High
Time0853Z 18/10Z 18/11Z 18/12Z 18/13Z 18/14Z 18/15Z 18/16Z 18/17Z 18/18Z 18/19Z 18/20Z 18/21Z 18/22Z>>
Type OBS PRVL PRVL PRVL PRVL PRVL PRVL PRVL PRVL PRVL PRVL PRVL PRVL PRVL
VIS 10 >6 >6 >6 >6 >6 >6 >6 >6 >6 >6 >6 >6 >6
CIG 90 35 35 35 35 50 50 50 50 50 50 45 45 45
Cover BKN OVC OVC OVC OVC OVC OVC OVC OVC OVC OVC OVC OVC OVC
FltCat VFR VFR VFR VFR VFR VFR VFR VFR VFR VFR VFR VFR VFR VFR
WX -- -SHRA -SHRA -SHRA -SHRA -SHRA -SHRA -SHRA -SHRA -SHRA -SHRA -RA -RA -RA
WDir 180 190 190 190 190 180 180 180 180 180 180 130 130 130
WSpd 6 15 15 15 15 10 10 10 10 10 10 10 10 10
WGst -- 25 25 25 25 -- -- -- -- -- -- -- -- --
Raw TAF
KPDX 180543Z 1806/1906 19015G25KT P6SM -SHRA SCT020 BKN035 OVC045
  FM181400 18010KT P6SM -SHRA SCT025 OVC050
  FM182000 13010KT P6SM -RA OVC045


Raw METAR
KPDX 180853Z 18006KT 10SM BKN090 BKN120 08/04 A3007 RMK AO2 SLP181 60000 T00830039 53041
KPDX 180753Z 19013KT 10SM FEW036 SCT070 BKN090 08/04 A3003 RMK AO2 RAB28E40 SLP168 P0000 T00830044 401220044
KPDX 180653Z 19016KT 10SM BKN048 BKN060 BKN075 08/04 A2998 RMK AO2 SLP152 T00830044

METAR Board
Radar Display
Forecast Discussion
For situational awareness. Not to be used for flight planning purposes.